sensor_id;sensor_type;location;lat;lon;timestamp;pressure;altitude;pressure_sealevel;temperature;humidity
31092;BME280;67728;53.122;12.776;2023-06-22T00:01:02;101110.13;;;15.80;89.55
31092;BME280;67728;53.122;12.776;2023-06-22T00:02:34;101113.69;;;15.78;89.47
31092;BME280;67728;53.122;12.776;2023-06-22T00:04:06;101110.13;;;15.80;89.67
31092;BME280;67728;53.122;12.776;2023-06-22T00:05:37;101103.25;;;15.76;89.95
31092;BME280;67728;53.122;12.776;2023-06-22T00:07:11;101106.91;;;15.72;89.66
31092;BME280;67728;53.122;12.776;2023-06-22T00:08:42;101121.97;;;15.64;89.82
31092;BME280;67728;53.122;12.776;2023-06-22T00:10:14;101121.91;;;15.66;90.21
31092;BME280;67728;53.122;12.776;2023-06-22T00:11:45;101124.50;;;15.67;90.29
31092;BME280;67728;53.122;12.776;2023-06-22T00:13:17;101121.16;;;15.62;90.15
31092;BME280;67728;53.122;12.776;2023-06-22T00:14:49;101122.09;;;15.60;90.34
31092;BME280;67728;53.122;12.776;2023-06-22T00:16:20;101120.44;;;15.57;90.60
31092;BME280;67728;53.122;12.776;2023-06-22T00:17:52;101123.09;;;15.55;89.12
31092;BME280;67728;53.122;12.776;2023-06-22T00:19:23;101116.03;;;15.57;90.52
31092;BME280;67728;53.122;12.776;2023-06-22T00:20:55;101116.56;;;15.39;90.59
31092;BME280;67728;53.122;12.776;2023-06-22T00:22:29;101119.84;;;15.47;89.95
31092;BME280;67728;53.122;12.776;2023-06-22T00:24:00;101120.72;;;15.46;90.79
31092;BME280;67728;53.122;12.776;2023-06-22T00:25:31;101123.38;;;15.45;90.75
31092;BME280;67728;53.122;12.776;2023-06-22T00:27:03;101119.84;;;15.47;91.36
31092;BME280;67728;53.122;12.776;2023-06-22T00:28:35;101125.06;;;15.47;91.17
31092;BME280;67728;53.122;12.776;2023-06-22T00:30:08;101118.81;;;15.53;90.32
31092;BME280;67728;53.122;12.776;2023-06-22T00:31:38;101127.59;;;15.50;90.60
31092;BME280;67728;53.122;12.776;2023-06-22T00:33:10;101137.47;;;15.39;89.07
31092;BME280;67728;53.122;12.776;2023-06-22T00:34:42;101132.59;;;15.27;90.47
31092;BME280;67728;53.122;12.776;2023-06-22T00:36:12;101134.47;;;15.22;91.16
31092;BME280;67728;53.122;12.776;2023-06-22T00:37:47;101126.63;;;15.22;91.43
31092;BME280;67728;53.122;12.776;2023-06-22T00:39:18;101129.94;;;15.29;91.68
31092;BME280;67728;53.122;12.776;2023-06-22T00:40:50;101124.00;;;15.22;91.74
31092;BME280;67728;53.122;12.776;2023-06-22T00:42:20;101126.84;;;15.15;92.46
31092;BME280;67728;53.122;12.776;2023-06-22T00:43:52;101122.38;;;15.18;92.25
31092;BME280;67728;53.122;12.776;2023-06-22T00:45:24;101119.00;;;15.15;91.76
31092;BME280;67728;53.122;12.776;2023-06-22T00:46:56;101131.81;;;15.24;92.77
31092;BME280;67728;53.122;12.776;2023-06-22T00:48:27;101127.09;;;15.36;91.39
31092;BME280;67728;53.122;12.776;2023-06-22T00:49:59;101129.47;;;15.44;91.55
31092;BME280;67728;53.122;12.776;2023-06-22T00:51:30;101133.78;;;15.46;91.53
31092;BME280;67728;53.122;12.776;2023-06-22T00:53:06;101133.25;;;15.34;90.02
31092;BME280;67728;53.122;12.776;2023-06-22T00:54:38;101125.66;;;15.26;90.40
31092;BME280;67728;53.122;12.776;2023-06-22T00:56:09;101125.56;;;15.29;90.98
31092;BME280;67728;53.122;12.776;2023-06-22T00:57:42;101121.91;;;15.35;91.06
31092;BME280;67728;53.122;12.776;2023-06-22T00:59:13;101130.50;;;15.38;91.03
31092;BME280;67728;53.122;12.776;2023-06-22T01:00:48;101132.91;;;15.47;90.36
31092;BME280;67728;53.122;12.776;2023-06-22T01:02:20;101132.03;;;15.48;90.78
31092;BME280;67728;53.122;12.776;2023-06-22T01:03:51;101138.09;;;15.49;90.73
31092;BME280;67728;53.122;12.776;2023-06-22T01:05:23;101138.00;;;15.52;90.36
31092;BME280;67728;53.122;12.776;2023-06-22T01:06:58;101139.66;;;15.54;91.00
31092;BME280;67728;53.122;12.776;2023-06-22T01:08:42;101127.91;;;15.38;90.04
31092;BME280;67728;53.122;12.776;2023-06-22T01:10:19;101140.00;;;15.42;90.47
31092;BME280;67728;53.122;12.776;2023-06-22T01:11:55;101141.63;;;15.46;90.30
31092;BME280;67728;53.122;12.776;2023-06-22T01:13:32;101138.19;;;15.46;90.25
31092;BME280;67728;53.122;12.776;2023-06-22T01:15:10;101139.09;;;15.43;89.80
31092;BME280;67728;53.122;12.776;2023-06-22T01:16:44;101137.41;;;15.41;90.56
31092;BME280;67728;53.122;12.776;2023-06-22T01:18:17;101136.69;;;15.36;89.67
31092;BME280;67728;53.122;12.776;2023-06-22T01:19:51;101138.66;;;15.28;90.07
31092;BME280;67728;53.122;12.776;2023-06-22T01:21:28;101139.78;;;15.19;90.06
31092;BME280;67728;53.122;12.776;2023-06-22T01:23:11;101137.66;;;15.01;92.02
31092;BME280;67728;53.122;12.776;2023-06-22T01:25:10;101133.38;;;14.98;92.63
31092;BME280;67728;53.122;12.776;2023-06-22T01:26:48;101136.97;;;14.94;92.17
31092;BME280;67728;53.122;12.776;2023-06-22T01:28:39;101132.44;;;15.01;92.65
31092;BME280;67728;53.122;12.776;2023-06-22T01:30:13;101133.44;;;14.97;91.55
31092;BME280;67728;53.122;12.776;2023-06-22T01:31:48;101135.97;;;15.00;91.92
31092;BME280;67728;53.122;12.776;2023-06-22T01:33:21;101132.13;;;15.12;92.26
31092;BME280;67728;53.122;12.776;2023-06-22T01:34:52;101134.84;;;15.09;92.04
31092;BME280;67728;53.122;12.776;2023-06-22T01:36:25;101132.06;;;15.15;90.78
31092;BME280;67728;53.122;12.776;2023-06-22T01:37:57;101137.22;;;15.18;91.21
31092;BME280;67728;53.122;12.776;2023-06-22T01:39:29;101144.31;;;15.13;91.38
31092;BME280;67728;53.122;12.776;2023-06-22T01:41:01;101138.38;;;15.08;90.99
31092;BME280;67728;53.122;12.776;2023-06-22T01:42:34;101141.72;;;15.11;90.14
31092;BME280;67728;53.122;12.776;2023-06-22T01:44:07;101141.09;;;15.03;90.73
31092;BME280;67728;53.122;12.776;2023-06-22T01:45:40;101137.00;;;14.93;91.10
31092;BME280;67728;53.122;12.776;2023-06-22T01:47:12;101141.47;;;14.89;91.65
31092;BME280;67728;53.122;12.776;2023-06-22T01:48:45;101144.34;;;14.79;91.65
31092;BME280;67728;53.122;12.776;2023-06-22T01:50:16;101138.09;;;14.84;91.96
31092;BME280;67728;53.122;12.776;2023-06-22T01:51:48;101132.22;;;14.76;91.63
31092;BME280;67728;53.122;12.776;2023-06-22T01:53:20;101136.03;;;14.63;93.13
31092;BME280;67728;53.122;12.776;2023-06-22T01:54:51;101140.38;;;14.64;92.59
31092;BME280;67728;53.122;12.776;2023-06-22T01:56:23;101137.63;;;14.70;92.47
31092;BME280;67728;53.122;12.776;2023-06-22T01:57:55;101134.69;;;14.82;92.33
31092;BME280;67728;53.122;12.776;2023-06-22T01:59:32;101138.94;;;14.86;92.36
31092;BME280;67728;53.122;12.776;2023-06-22T02:01:09;101137.88;;;14.93;92.11
31092;BME280;67728;53.122;12.776;2023-06-22T02:02:48;101138.09;;;14.84;90.80
31092;BME280;67728;53.122;12.776;2023-06-22T02:04:27;101138.09;;;14.84;91.31
31092;BME280;67728;53.122;12.776;2023-06-22T02:06:04;101138.06;;;14.86;91.15
31092;BME280;67728;53.122;12.776;2023-06-22T02:07:41;101140.75;;;14.83;91.52
31092;BME280;67728;53.122;12.776;2023-06-22T02:09:19;101140.84;;;14.80;91.34
31092;BME280;67728;53.122;12.776;2023-06-22T02:10:54;101147.94;;;14.75;91.17
31092;BME280;67728;53.122;12.776;2023-06-22T02:12:27;101152.53;;;14.65;91.22
31092;BME280;67728;53.122;12.776;2023-06-22T02:13:59;101144.03;;;14.57;91.83
31092;BME280;67728;53.122;12.776;2023-06-22T02:15:32;101145.81;;;14.55;92.54
31092;BME280;67728;53.122;12.776;2023-06-22T02:17:05;101145.75;;;14.58;92.46
31092;BME280;67728;53.122;12.776;2023-06-22T02:18:38;101149.06;;;14.65;92.52
31092;BME280;67728;53.122;12.776;2023-06-22T02:20:12;101149.06;;;14.65;92.99
31092;BME280;67728;53.122;12.776;2023-06-22T02:21:44;101153.28;;;14.70;92.42
31092;BME280;67728;53.122;12.776;2023-06-22T02:23:15;101153.19;;;14.73;92.99
31092;BME280;67728;53.122;12.776;2023-06-22T02:24:47;101152.28;;;14.76;92.72
31092;BME280;67728;53.122;12.776;2023-06-22T02:26:19;101158.25;;;14.79;92.63
31092;BME280;67728;53.122;12.776;2023-06-22T02:27:50;101152.16;;;14.80;92.96
31092;BME280;67728;53.122;12.776;2023-06-22T02:29:22;101158.31;;;14.78;92.11
31092;BME280;67728;53.122;12.776;2023-06-22T02:30:55;101160.28;;;14.68;92.02
31092;BME280;67728;53.122;12.776;2023-06-22T02:32:26;101169.31;;;14.57;92.24
31092;BME280;67728;53.122;12.776;2023-06-22T02:33:58;101170.78;;;14.65;91.89
31092;BME280;67728;53.122;12.776;2023-06-22T02:35:29;101163.84;;;14.66;91.81
31092;BME280;67728;53.122;12.776;2023-06-22T02:37:02;101161.06;;;14.72;91.80
31092;BME280;67728;53.122;12.776;2023-06-22T02:38:34;101165.75;;;14.59;92.31
31092;BME280;67728;53.122;12.776;2023-06-22T02:40:06;101171.03;;;14.56;93.26
31092;BME280;67728;53.122;12.776;2023-06-22T02:41:39;101171.84;;;14.58;93.62
31092;BME280;67728;53.122;12.776;2023-06-22T02:43:09;101174.53;;;14.57;93.49
31092;BME280;67728;53.122;12.776;2023-06-22T02:44:41;101175.28;;;14.60;94.51
31092;BME280;67728;53.122;12.776;2023-06-22T02:46:15;101169.03;;;14.67;94.35
31092;BME280;67728;53.122;12.776;2023-06-22T02:47:47;101170.78;;;14.65;94.47
31092;BME280;67728;53.122;12.776;2023-06-22T02:49:19;101180.41;;;14.65;94.04
31092;BME280;67728;53.122;12.776;2023-06-22T02:50:50;101174.53;;;14.57;93.42
31092;BME280;67728;53.122;12.776;2023-06-22T02:52:22;101180.56;;;14.59;92.77
31092;BME280;67728;53.122;12.776;2023-06-22T02:53:53;101179.84;;;14.52;93.31
31092;BME280;67728;53.122;12.776;2023-06-22T02:55:27;101181.75;;;14.46;93.50
31092;BME280;67728;53.122;12.776;2023-06-22T02:56:59;101182.69;;;14.43;93.44
31092;BME280;67728;53.122;12.776;2023-06-22T02:58:33;101180.13;;;14.40;93.12
31092;BME280;67728;53.122;12.776;2023-06-22T03:00:10;101185.97;;;14.50;93.45
31092;BME280;67728;53.122;12.776;2023-06-22T03:01:48;101189.59;;;14.44;93.09
31092;BME280;67728;53.122;12.776;2023-06-22T03:03:20;101188.53;;;14.53;93.08
31092;BME280;67728;53.122;12.776;2023-06-22T03:04:52;101189.31;;;14.56;92.79
31092;BME280;67728;53.122;12.776;2023-06-22T03:06:23;101184.72;;;14.66;92.71
31092;BME280;67728;53.122;12.776;2023-06-22T03:07:58;101181.16;;;14.68;92.92
31092;BME280;67728;53.122;12.776;2023-06-22T03:09:30;101187.25;;;14.69;93.15
31092;BME280;67728;53.122;12.776;2023-06-22T03:11:01;101184.63;;;14.70;92.43
31092;BME280;67728;53.122;12.776;2023-06-22T03:12:33;101182.00;;;14.70;91.88
31092;BME280;67728;53.122;12.776;2023-06-22T03:14:03;101182.03;;;14.69;92.11
31092;BME280;67728;53.122;12.776;2023-06-22T03:15:35;101186.91;;;14.49;91.33
31092;BME280;67728;53.122;12.776;2023-06-22T03:17:08;101187.66;;;14.54;92.03
31092;BME280;67728;53.122;12.776;2023-06-22T03:18:41;101190.88;;;14.63;92.03
31092;BME280;67728;53.122;12.776;2023-06-22T03:20:11;101197.75;;;14.67;91.48
31092;BME280;67728;53.122;12.776;2023-06-22T03:21:43;101195.22;;;14.64;91.46
31092;BME280;67728;53.122;12.776;2023-06-22T03:23:15;101191.66;;;14.67;91.04
31092;BME280;67728;53.122;12.776;2023-06-22T03:24:46;101194.28;;;14.65;91.64
31092;BME280;67728;53.122;12.776;2023-06-22T03:26:18;101190.50;;;14.43;91.51
31092;BME280;67728;53.122;12.776;2023-06-22T03:27:50;101190.81;;;14.29;93.09
31092;BME280;67728;53.122;12.776;2023-06-22T03:29:22;101193.25;;;14.37;93.65
31092;BME280;67728;53.122;12.776;2023-06-22T03:30:52;101190.50;;;14.43;93.45
31092;BME280;67728;53.122;12.776;2023-06-22T03:32:25;101191.53;;;14.36;93.60
31092;BME280;67728;53.122;12.776;2023-06-22T03:33:59;101186.50;;;14.27;94.02
31092;BME280;67728;53.122;12.776;2023-06-22T03:35:31;101190.13;;;14.20;94.49
31092;BME280;67728;53.122;12.776;2023-06-22T03:37:03;101193.59;;;14.20;94.59
31092;BME280;67728;53.122;12.776;2023-06-22T03:38:35;101178.00;;;14.19;94.64
31092;BME280;67728;53.122;12.776;2023-06-22T03:40:08;101170.19;;;14.17;94.58
31092;BME280;67728;53.122;12.776;2023-06-22T03:41:39;101170.91;;;14.24;94.56
31092;BME280;67728;53.122;12.776;2023-06-22T03:43:11;101177.88;;;14.23;94.33
31092;BME280;67728;53.122;12.776;2023-06-22T03:44:43;101180.59;;;14.19;94.29
31092;BME280;67728;53.122;12.776;2023-06-22T03:46:13;101180.50;;;14.23;94.51
31092;BME280;67728;53.122;12.776;2023-06-22T03:47:46;101182.97;;;14.29;94.24
31092;BME280;67728;53.122;12.776;2023-06-22T03:49:18;101184.44;;;14.41;93.71
31092;BME280;67728;53.122;12.776;2023-06-22T03:50:50;101184.25;;;14.50;94.30
31092;BME280;67728;53.122;12.776;2023-06-22T03:52:21;101181.69;;;14.49;93.69
31092;BME280;67728;53.122;12.776;2023-06-22T03:53:53;101188.59;;;14.50;93.55
31092;BME280;67728;53.122;12.776;2023-06-22T03:55:25;101196.53;;;14.45;93.96
31092;BME280;67728;53.122;12.776;2023-06-22T03:56:56;101194.81;;;14.44;94.02
31092;BME280;67728;53.122;12.776;2023-06-22T03:58:28;101195.00;;;14.38;94.44
31092;BME280;67728;53.122;12.776;2023-06-22T04:00:04;101201.09;;;14.35;94.65
31092;BME280;67728;53.122;12.776;2023-06-22T04:01:36;101201.09;;;14.35;94.48
31092;BME280;67728;53.122;12.776;2023-06-22T04:03:09;101201.09;;;14.35;95.34
31092;BME280;67728;53.122;12.776;2023-06-22T04:04:40;101198.44;;;14.38;95.86
31092;BME280;67728;53.122;12.776;2023-06-22T04:06:11;101206.25;;;14.38;96.32
31092;BME280;67728;53.122;12.776;2023-06-22T04:07:43;101206.25;;;14.38;96.53
31092;BME280;67728;53.122;12.776;2023-06-22T04:09:14;101201.78;;;14.44;96.11
31092;BME280;67728;53.122;12.776;2023-06-22T04:10:46;101207.91;;;14.43;95.50
31092;BME280;67728;53.122;12.776;2023-06-22T04:12:18;101214.03;;;14.42;95.97
31092;BME280;67728;53.122;12.776;2023-06-22T04:13:49;101213.09;;;14.44;96.37
31092;BME280;67728;53.122;12.776;2023-06-22T04:15:21;101210.34;;;14.50;95.64
31092;BME280;67728;53.122;12.776;2023-06-22T04:16:53;101205.19;;;14.47;95.54
31092;BME280;67728;53.122;12.776;2023-06-22T04:18:26;101210.34;;;14.50;95.90
31092;BME280;67728;53.122;12.776;2023-06-22T04:19:58;101214.56;;;14.56;96.46
31092;BME280;67728;53.122;12.776;2023-06-22T04:21:29;101206.72;;;14.56;95.63
31092;BME280;67728;53.122;12.776;2023-06-22T04:23:01;101203.25;;;14.57;95.83
31092;BME280;67728;53.122;12.776;2023-06-22T04:24:32;101202.38;;;14.55;96.03
31092;BME280;67728;53.122;12.776;2023-06-22T04:26:04;101199.66;;;14.61;96.27
31092;BME280;67728;53.122;12.776;2023-06-22T04:27:35;101197.81;;;14.64;96.24
31092;BME280;67728;53.122;12.776;2023-06-22T04:29:07;101200.38;;;14.67;96.58
31092;BME280;67728;53.122;12.776;2023-06-22T04:30:39;101197.69;;;14.70;97.20
31092;BME280;67728;53.122;12.776;2023-06-22T04:32:16;101197.56;;;14.73;97.73
31092;BME280;67728;53.122;12.776;2023-06-22T04:33:49;101196.63;;;14.77;97.38
31092;BME280;67728;53.122;12.776;2023-06-22T04:35:22;101200.09;;;14.78;97.03
31092;BME280;67728;53.122;12.776;2023-06-22T04:36:53;101187.00;;;14.79;96.72
31092;BME280;67728;53.122;12.776;2023-06-22T04:38:25;101194.59;;;14.88;95.80
31092;BME280;67728;53.122;12.776;2023-06-22T04:39:57;101188.44;;;14.91;96.57
31092;BME280;67728;53.122;12.776;2023-06-22T04:41:29;101184.84;;;14.95;95.79
31092;BME280;67728;53.122;12.776;2023-06-22T04:43:07;101186.53;;;14.98;96.44
31092;BME280;67728;53.122;12.776;2023-06-22T04:44:40;101182.00;;;15.04;96.07
31092;BME280;67728;53.122;12.776;2023-06-22T04:46:12;101182.78;;;15.08;95.61
31092;BME280;67728;53.122;12.776;2023-06-22T04:47:43;101176.41;;;15.18;95.84
31092;BME280;67728;53.122;12.776;2023-06-22T04:49:17;101183.16;;;15.26;95.28
31092;BME280;67728;53.122;12.776;2023-06-22T04:50:50;101181.09;;;15.37;95.02
31092;BME280;67728;53.122;12.776;2023-06-22T04:52:21;101185.06;;;15.52;95.59
31092;BME280;67728;53.122;12.776;2023-06-22T04:53:54;101185.53;;;15.66;95.60
31092;BME280;67728;53.122;12.776;2023-06-22T04:55:31;101188.63;;;15.79;97.15
31092;BME280;67728;53.122;12.776;2023-06-22T04:57:04;101185.72;;;15.89;97.38
31092;BME280;67728;53.122;12.776;2023-06-22T04:58:39;101190.59;;;16.01;98.30
31092;BME280;67728;53.122;12.776;2023-06-22T05:00:12;101191.38;;;16.03;98.37
31092;BME280;67728;53.122;12.776;2023-06-22T05:01:47;101187.78;;;16.07;98.11
31092;BME280;67728;53.122;12.776;2023-06-22T05:03:19;101186.56;;;16.19;98.66
31092;BME280;67728;53.122;12.776;2023-06-22T05:04:51;101189.03;;;16.24;98.53
31092;BME280;67728;53.122;12.776;2023-06-22T05:06:27;101192.41;;;16.27;98.41
31092;BME280;67728;53.122;12.776;2023-06-22T05:08:00;101193.25;;;16.28;98.17
31092;BME280;67728;53.122;12.776;2023-06-22T05:09:33;101189.59;;;16.33;98.04
31092;BME280;67728;53.122;12.776;2023-06-22T05:11:05;101191.16;;;16.39;99.05
31092;BME280;67728;53.122;12.776;2023-06-22T05:12:37;101196.91;;;16.50;98.48
31092;BME280;67728;53.122;12.776;2023-06-22T05:14:09;101195.00;;;16.56;98.44
31092;BME280;67728;53.122;12.776;2023-06-22T05:15:41;101194.75;;;16.64;98.62
31092;BME280;67728;53.122;12.776;2023-06-22T05:17:12;101186.47;;;16.76;98.32
31092;BME280;67728;53.122;12.776;2023-06-22T05:18:44;101183.53;;;16.85;98.29
31092;BME280;67728;53.122;12.776;2023-06-22T05:20:17;101180.06;;;16.85;98.32
31092;BME280;67728;53.122;12.776;2023-06-22T05:21:49;101182.75;;;16.83;97.67
31092;BME280;67728;53.122;12.776;2023-06-22T05:23:21;101177.53;;;16.82;97.24
31092;BME280;67728;53.122;12.776;2023-06-22T05:24:52;101181.72;;;16.87;96.54
31092;BME280;67728;53.122;12.776;2023-06-22T05:26:24;101177.94;;;16.96;96.12
31092;BME280;67728;53.122;12.776;2023-06-22T05:27:56;101180.63;;;16.94;96.58
31092;BME280;67728;53.122;12.776;2023-06-22T05:29:27;101176.88;;;17.01;96.15
31092;BME280;67728;53.122;12.776;2023-06-22T05:30:59;101178.44;;;17.07;95.96
31092;BME280;67728;53.122;12.776;2023-06-22T05:32:30;101180.88;;;17.11;95.70
31092;BME280;67728;53.122;12.776;2023-06-22T05:34:02;101186.09;;;17.13;95.25
31092;BME280;67728;53.122;12.776;2023-06-22T05:35:35;101185.22;;;17.12;95.32
31092;BME280;67728;53.122;12.776;2023-06-22T05:37:07;101180.75;;;17.16;95.49
31092;BME280;67728;53.122;12.776;2023-06-22T05:38:40;101190.16;;;17.21;95.36
31092;BME280;67728;53.122;12.776;2023-06-22T05:40:12;101186.56;;;17.24;95.38
31092;BME280;67728;53.122;12.776;2023-06-22T05:41:45;101191.81;;;17.24;94.87
31092;BME280;67728;53.122;12.776;2023-06-22T05:43:17;101181.13;;;17.30;94.65
31092;BME280;67728;53.122;12.776;2023-06-22T05:44:48;101187.56;;;17.45;94.30
31092;BME280;67728;53.122;12.776;2023-06-22T05:46:20;101188.06;;;17.56;93.69
31092;BME280;67728;53.122;12.776;2023-06-22T05:47:52;101185.34;;;17.59;92.89
31092;BME280;67728;53.122;12.776;2023-06-22T05:49:22;101184.03;;;17.70;92.53
31092;BME280;67728;53.122;12.776;2023-06-22T05:51:01;101182.25;;;17.71;92.34
31092;BME280;67728;53.122;12.776;2023-06-22T05:52:32;101182.88;;;17.77;91.99
31092;BME280;67728;53.122;12.776;2023-06-22T05:54:04;101178.00;;;17.90;91.71
31092;BME280;67728;53.122;12.776;2023-06-22T05:55:38;101179.63;;;17.94;91.13
31092;BME280;67728;53.122;12.776;2023-06-22T05:57:10;101182.91;;;17.99;90.48
31092;BME280;67728;53.122;12.776;2023-06-22T05:58:41;101176.94;;;18.17;88.73
31092;BME280;67728;53.122;12.776;2023-06-22T06:00:13;101182.81;;;18.24;87.27
31092;BME280;67728;53.122;12.776;2023-06-22T06:01:45;101197.25;;;18.35;85.18
31092;BME280;67728;53.122;12.776;2023-06-22T06:03:20;101196.97;;;18.41;85.74
31092;BME280;67728;53.122;12.776;2023-06-22T06:04:51;101203.00;;;18.67;83.43
31092;BME280;67728;53.122;12.776;2023-06-22T06:06:26;101195.66;;;18.75;83.31
31092;BME280;67728;53.122;12.776;2023-06-22T06:07:59;101190.31;;;18.76;80.70
31092;BME280;67728;53.122;12.776;2023-06-22T06:09:31;101189.91;;;18.87;80.60
31092;BME280;67728;53.122;12.776;2023-06-22T06:11:03;101196.59;;;18.94;81.21
31092;BME280;67728;53.122;12.776;2023-06-22T06:12:34;101200.50;;;19.05;82.77
31092;BME280;67728;53.122;12.776;2023-06-22T06:14:06;101199.63;;;19.05;81.67
31092;BME280;67728;53.122;12.776;2023-06-22T06:15:38;101203.78;;;19.10;81.82
31092;BME280;67728;53.122;12.776;2023-06-22T06:17:10;101200.72;;;19.20;80.90
31092;BME280;67728;53.122;12.776;2023-06-22T06:18:41;101197.94;;;19.24;79.55
31092;BME280;67728;53.122;12.776;2023-06-22T06:20:13;101200.56;;;19.24;80.08
31092;BME280;67728;53.122;12.776;2023-06-22T06:21:46;101201.06;;;19.32;81.08
31092;BME280;67728;53.122;12.776;2023-06-22T06:23:18;101200.78;;;19.40;79.84
31092;BME280;67728;53.122;12.776;2023-06-22T06:24:50;101199.28;;;19.53;78.98
31092;BME280;67728;53.122;12.776;2023-06-22T06:26:21;101201.72;;;19.57;79.53
31092;BME280;67728;53.122;12.776;2023-06-22T06:27:58;101202.03;;;19.70;78.54
31092;BME280;67728;53.122;12.776;2023-06-22T06:29:30;101199.78;;;19.81;77.92
31092;BME280;67728;53.122;12.776;2023-06-22T06:31:01;101201.81;;;19.93;76.72
31092;BME280;67728;53.122;12.776;2023-06-22T06:32:37;101206.72;;;20.01;76.80
31092;BME280;67728;53.122;12.776;2023-06-22T06:34:09;101205.81;;;20.02;77.39
31092;BME280;67728;53.122;12.776;2023-06-22T06:35:41;101211.81;;;20.05;76.65
31092;BME280;67728;53.122;12.776;2023-06-22T06:37:14;101207.81;;;20.15;75.02
31092;BME280;67728;53.122;12.776;2023-06-22T06:38:46;101205.56;;;20.26;74.03
31092;BME280;67728;53.122;12.776;2023-06-22T06:40:18;101203.50;;;20.50;70.71
31092;BME280;67728;53.122;12.776;2023-06-22T06:41:50;101204.19;;;20.72;70.91
31092;BME280;67728;53.122;12.776;2023-06-22T06:43:21;101200.22;;;20.81;72.71
31092;BME280;67728;53.122;12.776;2023-06-22T06:44:54;101202.84;;;20.98;71.12
31092;BME280;67728;53.122;12.776;2023-06-22T06:46:25;101207.56;;;21.10;72.08
31092;BME280;67728;53.122;12.776;2023-06-22T06:47:57;101208.16;;;21.15;70.53
31092;BME280;67728;53.122;12.776;2023-06-22T06:49:28;101201.13;;;21.16;70.98
31092;BME280;67728;53.122;12.776;2023-06-22T06:51:00;101211.06;;;21.11;72.85
31092;BME280;67728;53.122;12.776;2023-06-22T06:52:33;101205.38;;;21.18;72.70
31092;BME280;67728;53.122;12.776;2023-06-22T06:54:05;101199.78;;;21.24;71.66
31092;BME280;67728;53.122;12.776;2023-06-22T06:55:37;101208.38;;;21.28;70.86
31092;BME280;67728;53.122;12.776;2023-06-22T06:57:09;101203.56;;;21.36;70.51
31092;BME280;67728;53.122;12.776;2023-06-22T06:58:43;101208.53;;;21.42;71.30
31092;BME280;67728;53.122;12.776;2023-06-22T07:00:16;101209.94;;;21.49;70.38
31092;BME280;67728;53.122;12.776;2023-06-22T07:01:50;101207.53;;;21.60;71.08
31092;BME280;67728;53.122;12.776;2023-06-22T07:03:21;101210.97;;;21.62;69.83
31092;BME280;67728;53.122;12.776;2023-06-22T07:04:53;101205.59;;;21.64;70.25
31092;BME280;67728;53.122;12.776;2023-06-22T07:06:25;101207.84;;;21.71;70.98
31092;BME280;67728;53.122;12.776;2023-06-22T07:08:00;101214.69;;;21.58;71.04
31092;BME280;67728;53.122;12.776;2023-06-22T07:09:32;101199.84;;;21.73;69.91
31092;BME280;67728;53.122;12.776;2023-06-22T07:11:04;101200.75;;;21.89;69.15
31092;BME280;67728;53.122;12.776;2023-06-22T07:12:36;101200.84;;;22.03;69.23
31092;BME280;67728;53.122;12.776;2023-06-22T07:14:06;101203.56;;;22.17;68.29
31092;BME280;67728;53.122;12.776;2023-06-22T07:15:38;101196.59;;;22.32;66.78
31092;BME280;67728;53.122;12.776;2023-06-22T07:17:09;101205.09;;;22.37;65.46
31092;BME280;67728;53.122;12.776;2023-06-22T07:18:41;101201.69;;;22.50;66.36
31092;BME280;67728;53.122;12.776;2023-06-22T07:20:13;101203.69;;;22.61;66.07
31092;BME280;67728;53.122;12.776;2023-06-22T07:21:44;101202.94;;;22.75;65.32
31092;BME280;67728;53.122;12.776;2023-06-22T07:23:17;101194.72;;;22.79;65.80
31092;BME280;67728;53.122;12.776;2023-06-22T07:24:49;101191.72;;;22.85;63.13
31092;BME280;67728;53.122;12.776;2023-06-22T07:26:20;101194.41;;;22.99;63.82
31092;BME280;67728;53.122;12.776;2023-06-22T07:27:59;101188.31;;;23.13;61.38
31092;BME280;67728;53.122;12.776;2023-06-22T07:29:31;101194.56;;;22.82;62.83
31092;BME280;67728;53.122;12.776;2023-06-22T07:31:03;101197.03;;;22.85;61.93
31092;BME280;67728;53.122;12.776;2023-06-22T07:32:35;101196.94;;;22.87;63.98
31092;BME280;67728;53.122;12.776;2023-06-22T07:34:07;101196.63;;;22.61;66.04
31092;BME280;67728;53.122;12.776;2023-06-22T07:35:39;101187.34;;;22.39;65.43
31092;BME280;67728;53.122;12.776;2023-06-22T07:37:10;101190.28;;;22.19;65.87
31092;BME280;67728;53.122;12.776;2023-06-22T07:38:43;101196.25;;;22.38;67.34
31092;BME280;67728;53.122;12.776;2023-06-22T07:40:15;101187.19;;;22.42;67.75
31092;BME280;67728;53.122;12.776;2023-06-22T07:41:47;101186.16;;;22.44;62.68
31092;BME280;67728;53.122;12.776;2023-06-22T07:43:18;101180.81;;;22.30;64.05
31092;BME280;67728;53.122;12.776;2023-06-22T07:44:50;101181.22;;;22.23;62.36
31092;BME280;67728;53.122;12.776;2023-06-22T07:46:22;101197.09;;;22.38;64.91
31092;BME280;67728;53.122;12.776;2023-06-22T07:47:54;101190.66;;;22.58;65.68
31092;BME280;67728;53.122;12.776;2023-06-22T07:49:25;101179.41;;;22.70;63.53
31092;BME280;67728;53.122;12.776;2023-06-22T07:50:57;101178.25;;;22.29;65.36
31092;BME280;67728;53.122;12.776;2023-06-22T07:52:30;101184.41;;;22.14;67.10
31092;BME280;67728;53.122;12.776;2023-06-22T07:54:03;101178.84;;;22.34;62.74
31092;BME280;67728;53.122;12.776;2023-06-22T07:55:35;101175.50;;;22.46;61.78
31092;BME280;67728;53.122;12.776;2023-06-22T07:57:06;101171.72;;;22.50;62.49
31092;BME280;67728;53.122;12.776;2023-06-22T07:58:38;101173.72;;;22.31;64.29